createdAt,value
2022-12-20T00:01:27.011Z,25.90
2022-12-20T00:03:56.050Z,23.67
2022-12-20T00:06:23.272Z,20.10
2022-12-20T00:08:58.240Z,18.92
2022-12-20T00:11:25.827Z,18.63
2022-12-20T00:13:52.679Z,20.23
2022-12-20T00:16:22.058Z,19.45
2022-12-20T00:18:52.214Z,20.08
2022-12-20T00:21:19.196Z,18.92
2022-12-20T00:23:46.081Z,21.40
2022-12-20T00:26:15.653Z,20.70
2022-12-20T00:28:45.512Z,20.58
2022-12-20T00:31:14.732Z,17.65
2022-12-20T00:33:44.642Z,17.23
2022-12-20T00:36:11.423Z,17.33
2022-12-20T00:38:38.271Z,17.75
2022-12-20T00:41:12.809Z,16.83
2022-12-20T00:43:40.763Z,16.65
2022-12-20T00:46:09.363Z,15.57
2022-12-20T00:48:36.368Z,17.00
2022-12-20T00:51:12.048Z,16.65
2022-12-20T00:53:39.525Z,17.05
2022-12-20T00:56:07.581Z,15.98
2022-12-20T00:58:37.762Z,16.25
2022-12-20T01:01:06.391Z,16.65
2022-12-20T01:03:33.673Z,16.10
2022-12-20T01:06:02.500Z,15.43
2022-12-20T01:08:31.411Z,15.57
2022-12-20T01:11:25.746Z,15.55
2022-12-20T01:13:54.604Z,15.68
2022-12-20T01:16:23.056Z,15.30
2022-12-20T01:18:50.850Z,14.77
2022-12-20T01:21:19.469Z,16.83
2022-12-20T01:23:46.780Z,15.75
2022-12-20T01:26:17.065Z,15.48
2022-12-20T01:28:46.178Z,15.30
2022-12-20T01:31:16.349Z,17.05
2022-12-20T01:33:44.294Z,15.07
2022-12-20T01:36:16.784Z,14.43
2022-12-20T01:38:44.027Z,15.98
2022-12-20T01:41:19.316Z,14.60
2022-12-20T01:44:01.194Z,14.73
2022-12-20T01:46:31.450Z,15.20
2022-12-20T01:49:06.525Z,15.32
2022-12-20T01:51:36.934Z,14.82
2022-12-20T01:54:30.856Z,14.85
2022-12-20T01:57:06.718Z,15.57
2022-12-20T01:59:36.242Z,15.40
2022-12-20T02:02:07.645Z,16.25
2022-12-20T02:04:34.468Z,16.67
2022-12-20T02:07:02.014Z,17.50
2022-12-20T02:09:30.276Z,16.67
2022-12-20T02:12:21.248Z,14.48
2022-12-20T02:14:51.347Z,15.32
2022-12-20T02:17:24.124Z,15.23
2022-12-20T02:20:26.806Z,15.27
2022-12-20T02:23:21.615Z,14.35
2022-12-20T02:25:57.445Z,14.07
2022-12-20T02:28:45.655Z,14.20
2022-12-20T02:31:15.054Z,14.95
2022-12-20T02:33:47.332Z,14.23
2022-12-20T02:36:18.393Z,15.48
2022-12-20T02:38:45.477Z,14.98
2022-12-20T02:41:22.083Z,14.07
2022-12-20T02:44:13.095Z,14.15
2022-12-20T02:46:40.684Z,14.32
2022-12-20T02:49:16.504Z,14.73
2022-12-20T02:51:46.204Z,14.63
2022-12-20T02:54:13.881Z,14.43
2022-12-20T02:56:46.695Z,14.57
2022-12-20T02:59:28.281Z,14.30
2022-12-20T03:01:56.336Z,14.38
2022-12-20T03:04:36.457Z,13.30
2022-12-20T03:07:09.086Z,14.00
2022-12-20T03:09:38.500Z,13.55
2022-12-20T03:12:06.794Z,14.35
2022-12-20T03:14:33.648Z,13.73
2022-12-20T03:17:01.062Z,14.13
2022-12-20T03:19:27.841Z,14.68
2022-12-20T03:21:54.631Z,14.73
2022-12-20T03:24:21.580Z,14.88
2022-12-20T03:26:48.474Z,14.02
2022-12-20T03:29:15.190Z,13.93
2022-12-20T03:31:41.846Z,14.05
2022-12-20T03:34:08.558Z,13.27
2022-12-20T03:36:35.254Z,14.43
2022-12-20T03:39:02.026Z,13.77
2022-12-20T03:41:28.750Z,13.10
2022-12-20T03:43:55.468Z,12.18
2022-12-20T03:46:22.322Z,13.57
2022-12-20T03:48:48.986Z,12.88
2022-12-20T03:51:15.653Z,13.32
2022-12-20T03:53:42.432Z,12.77
2022-12-20T03:56:09.977Z,12.90
2022-12-20T03:58:36.667Z,13.00
2022-12-20T04:01:16.001Z,12.45
2022-12-20T04:03:42.706Z,13.80
2022-12-20T04:06:09.780Z,13.70
2022-12-20T04:08:36.940Z,14.18
2022-12-20T04:11:19.168Z,12.88
2022-12-20T04:13:54.853Z,13.38
2022-12-20T04:16:24.851Z,11.88
2022-12-20T04:18:51.711Z,12.40
2022-12-20T04:21:31.438Z,12.43
2022-12-20T04:23:59.796Z,12.80
2022-12-20T04:26:27.235Z,12.40
2022-12-20T04:28:54.142Z,12.75
2022-12-20T04:31:24.139Z,13.63
2022-12-20T04:33:51.601Z,16.55
2022-12-20T04:36:18.720Z,18.15
2022-12-20T04:38:45.494Z,21.10
2022-12-20T04:41:22.201Z,17.88
2022-12-20T04:43:55.022Z,17.40
2022-12-20T04:46:23.633Z,15.88
2022-12-20T04:48:59.225Z,16.40
2022-12-20T04:51:27.919Z,14.63
2022-12-20T04:53:54.785Z,16.38
2022-12-20T04:56:24.970Z,17.27
2022-12-20T04:58:53.417Z,16.63
2022-12-20T05:01:20.690Z,18.17
2022-12-20T05:03:48.080Z,16.63
2022-12-20T05:06:15.547Z,16.40
2022-12-20T05:08:42.679Z,17.55
2022-12-20T05:11:09.589Z,16.95
2022-12-20T05:13:36.727Z,20.60
2022-12-20T05:16:04.090Z,15.82
2022-12-20T05:18:30.884Z,16.17
2022-12-20T05:21:18.124Z,20.63
2022-12-20T05:24:03.904Z,21.23
2022-12-20T05:26:34.277Z,20.10
2022-12-20T05:29:00.931Z,18.52
2022-12-20T05:31:27.963Z,18.42
2022-12-20T05:33:54.738Z,17.13
2022-12-20T05:36:21.484Z,15.55
2022-12-20T05:38:48.224Z,17.08
2022-12-20T05:41:15.979Z,16.95
2022-12-20T05:43:42.805Z,18.35
2022-12-20T05:46:10.697Z,15.55
2022-12-20T05:48:37.686Z,14.98
2022-12-20T05:51:04.553Z,14.27
2022-12-20T05:53:31.295Z,14.32
2022-12-20T05:55:58.608Z,14.40
2022-12-20T05:58:25.309Z,15.05
2022-12-20T06:00:51.969Z,15.00
2022-12-20T06:03:19.157Z,20.27
2022-12-20T06:05:46.446Z,25.23
2022-12-20T06:08:14.063Z,21.27
2022-12-20T06:10:42.053Z,22.92
2022-12-20T06:13:09.884Z,18.10
2022-12-20T06:15:37.258Z,17.52
2022-12-20T06:18:04.431Z,20.48
2022-12-20T06:20:31.290Z,22.55
2022-12-20T06:22:58.256Z,22.63
2022-12-20T06:25:26.007Z,27.10
2022-12-20T06:27:52.875Z,25.73
2022-12-20T06:30:19.941Z,22.95
2022-12-20T06:32:46.629Z,21.33
2022-12-20T06:35:14.288Z,21.63
2022-12-20T06:37:41.781Z,19.50
2022-12-20T06:40:10.789Z,18.52
2022-12-20T06:42:37.535Z,18.27
2022-12-20T06:45:05.551Z,17.50
2022-12-20T06:47:32.396Z,18.13
2022-12-20T06:49:59.037Z,28.83
2022-12-20T06:52:26.051Z,18.95
2022-12-20T06:54:52.882Z,17.55
2022-12-20T06:57:19.796Z,18.98
2022-12-20T06:59:46.592Z,19.88
2022-12-20T07:02:13.968Z,19.23
2022-12-20T07:04:41.140Z,19.95
2022-12-20T07:07:08.413Z,15.75
2022-12-20T07:09:35.502Z,16.98
2022-12-20T07:12:02.204Z,20.80
2022-12-20T07:14:29.008Z,21.40
2022-12-20T07:16:55.765Z,20.02
2022-12-20T07:19:22.669Z,20.52
2022-12-20T07:21:49.488Z,23.30
2022-12-20T07:24:16.234Z,24.83
2022-12-20T07:26:45.596Z,25.00
2022-12-20T07:29:16.000Z,25.63
2022-12-20T07:31:43.614Z,22.63
2022-12-20T07:34:11.325Z,21.45
2022-12-20T07:36:38.428Z,21.45
2022-12-20T07:39:05.444Z,23.10
2022-12-20T07:41:32.271Z,25.25
2022-12-20T07:43:59.624Z,27.30
2022-12-20T07:46:26.915Z,27.58
2022-12-20T07:48:54.947Z,24.90
2022-12-20T07:51:29.210Z,25.52
2022-12-20T07:54:04.980Z,23.83
2022-12-20T07:56:40.801Z,29.80
2022-12-20T07:59:10.574Z,28.30
2022-12-20T08:01:37.550Z,24.92
2022-12-20T08:04:08.279Z,23.55
2022-12-20T08:06:37.094Z,34.20
2022-12-20T08:09:05.908Z,31.27
2022-12-20T08:11:34.767Z,27.90
2022-12-20T08:14:01.895Z,29.98
2022-12-20T08:16:28.612Z,32.33
2022-12-20T08:18:55.274Z,29.25
2022-12-20T08:21:21.988Z,29.80
2022-12-20T08:23:48.745Z,29.95
2022-12-20T08:26:15.479Z,28.42
2022-12-20T08:28:42.130Z,27.50
2022-12-20T08:31:09.840Z,26.27
2022-12-20T08:33:38.100Z,27.17
2022-12-20T08:36:11.654Z,26.38
2022-12-20T08:38:39.172Z,28.47
2022-12-20T08:41:11.029Z,28.08
2022-12-20T08:43:39.438Z,26.35
2022-12-20T08:46:07.548Z,28.83
2022-12-20T08:48:34.607Z,28.58
2022-12-20T08:51:04.973Z,38.72
2022-12-20T08:53:32.661Z,33.10
2022-12-20T08:56:18.624Z,38.72
2022-12-20T08:58:46.104Z,30.17
2022-12-20T09:01:16.709Z,29.08
2022-12-20T09:03:44.150Z,27.48
2022-12-20T09:06:16.010Z,25.80
2022-12-20T09:08:42.895Z,31.83
2022-12-20T09:11:18.993Z,28.58
2022-12-20T09:13:48.222Z,27.23
2022-12-20T09:16:16.839Z,26.88
2022-12-20T09:18:44.023Z,30.00
2022-12-20T09:21:11.869Z,25.52
2022-12-20T09:23:39.205Z,24.70
2022-12-20T09:26:10.038Z,28.90
2022-12-20T09:28:36.999Z,27.88
2022-12-20T09:31:06.665Z,26.35
2022-12-20T09:33:34.491Z,29.70
2022-12-20T09:36:02.330Z,31.63
2022-12-20T09:38:31.270Z,33.40
2022-12-20T09:41:06.753Z,31.40
2022-12-20T09:43:34.570Z,31.52
2022-12-20T09:46:02.944Z,31.05
2022-12-20T09:48:33.646Z,30.48
2022-12-20T09:51:25.611Z,30.70
2022-12-20T09:54:10.908Z,36.17
2022-12-20T09:56:43.677Z,38.47
2022-12-20T09:59:15.666Z,42.58
2022-12-20T10:01:48.474Z,41.78
2022-12-20T10:04:18.564Z,38.20
2022-12-20T10:07:01.860Z,32.05
2022-12-20T10:09:57.727Z,29.77
2022-12-20T10:12:46.011Z,31.13
2022-12-20T10:15:22.265Z,29.52
2022-12-20T10:18:15.730Z,29.20
2022-12-20T10:20:58.020Z,31.20
2022-12-20T10:23:48.402Z,31.70
2022-12-20T10:26:15.089Z,30.65
2022-12-20T10:28:41.912Z,30.52
2022-12-20T10:31:14.036Z,29.20
2022-12-20T10:33:41.156Z,27.15
2022-12-20T10:36:49.176Z,27.08
2022-12-20T10:39:15.813Z,25.75
2022-12-20T10:41:45.460Z,26.13
2022-12-20T10:44:15.650Z,24.98
2022-12-20T10:46:54.819Z,22.52
2022-12-20T10:49:28.451Z,23.77
2022-12-20T10:52:01.959Z,18.20
2022-12-20T10:54:33.232Z,13.80
2022-12-20T10:57:03.356Z,11.05
2022-12-20T10:59:36.626Z,9.40
2022-12-20T11:02:24.380Z,12.18
2022-12-20T11:05:23.050Z,13.32
2022-12-20T11:10:47.095Z,16.73
2022-12-20T11:13:26.112Z,15.43
2022-12-20T11:15:57.171Z,12.77
2022-12-20T11:18:43.568Z,9.65
2022-12-20T11:21:27.868Z,15.82
2022-12-20T11:26:48.161Z,13.52
2022-12-20T11:29:52.752Z,12.68
2022-12-20T11:32:41.841Z,12.18
2022-12-20T11:35:22.255Z,10.02
2022-12-20T11:38:12.426Z,9.65
2022-12-20T11:40:51.845Z,10.20
2022-12-20T11:44:23.779Z,9.35
2022-12-20T11:47:04.260Z,11.63
2022-12-20T11:49:49.879Z,10.90
2022-12-20T11:52:29.092Z,15.57
2022-12-20T11:55:13.247Z,17.95
2022-12-20T12:00:53.873Z,14.73
2022-12-20T12:03:34.816Z,14.35
2022-12-20T12:06:43.341Z,12.30
2022-12-20T12:09:38.971Z,23.25
2022-12-20T12:12:25.484Z,22.42
2022-12-20T12:15:25.939Z,12.50
2022-12-20T12:18:13.077Z,9.85
2022-12-20T12:20:53.514Z,9.43
2022-12-20T12:23:26.640Z,9.40
2022-12-20T12:25:53.713Z,8.77
2022-12-20T12:28:22.919Z,8.70
2022-12-20T12:31:00.683Z,9.30
2022-12-20T12:33:57.270Z,8.45
2022-12-20T12:36:49.758Z,6.82
2022-12-20T12:39:40.940Z,7.70
2022-12-20T12:42:43.893Z,8.48
2022-12-20T12:45:20.835Z,7.90
2022-12-20T12:48:19.759Z,6.97
2022-12-20T12:50:50.315Z,11.50
2022-12-20T12:53:35.541Z,9.80
2022-12-20T12:56:43.132Z,11.30
2022-12-20T12:59:29.485Z,12.50
2022-12-20T13:02:16.799Z,19.70
2022-12-20T13:05:00.158Z,14.63
2022-12-20T13:07:30.997Z,9.60
2022-12-20T13:09:59.048Z,8.32
2022-12-20T13:12:38.181Z,8.02
2022-12-20T13:15:19.975Z,8.38
2022-12-20T13:17:51.003Z,7.28
2022-12-20T13:20:27.272Z,8.10
2022-12-20T13:23:08.977Z,11.18
2022-12-20T13:25:51.660Z,9.50
2022-12-20T13:28:24.547Z,9.27
2022-12-20T13:31:04.529Z,8.23
2022-12-20T13:34:00.173Z,7.40
2022-12-20T13:36:35.770Z,7.20
2022-12-20T13:39:24.006Z,8.98
2022-12-20T13:42:15.887Z,13.60
2022-12-20T13:44:47.496Z,14.30
2022-12-20T13:47:37.627Z,13.23
2022-12-20T13:50:25.771Z,12.00
2022-12-20T13:52:54.691Z,9.70
2022-12-20T13:55:42.834Z,12.35
2022-12-20T13:58:19.771Z,10.00
2022-12-20T14:00:47.901Z,11.20
2022-12-20T14:03:29.090Z,10.38
2022-12-20T14:06:02.392Z,11.23
2022-12-20T14:08:36.151Z,11.90
2022-12-20T14:11:10.936Z,13.07
2022-12-20T14:13:37.720Z,13.07
2022-12-20T14:16:11.397Z,13.10
2022-12-20T14:18:38.092Z,16.87
2022-12-20T14:21:06.443Z,13.32
2022-12-20T14:23:38.797Z,11.00
2022-12-20T14:26:10.409Z,10.35
2022-12-20T14:28:39.965Z,11.20
2022-12-20T14:31:22.145Z,11.93
2022-12-20T14:33:50.398Z,11.60
2022-12-20T14:36:17.022Z,13.00
2022-12-20T14:38:46.014Z,12.10
2022-12-20T14:41:33.317Z,11.27
2022-12-20T14:44:08.277Z,11.40
2022-12-20T14:46:36.977Z,11.82
2022-12-20T14:49:32.966Z,12.60
2022-12-20T14:52:11.839Z,11.32
2022-12-20T14:55:07.883Z,11.35
2022-12-20T14:57:35.264Z,10.73
2022-12-20T15:00:25.452Z,10.48
2022-12-20T15:03:03.885Z,10.55
2022-12-20T15:05:34.212Z,10.85
2022-12-20T15:08:33.670Z,11.50
2022-12-20T15:11:09.545Z,17.05
2022-12-20T15:13:37.377Z,30.70
2022-12-20T15:16:16.222Z,23.23
2022-12-20T15:18:42.957Z,18.88
2022-12-20T15:21:30.002Z,26.80
2022-12-20T15:23:59.576Z,23.45
2022-12-20T15:26:27.872Z,23.63
2022-12-20T15:28:55.296Z,21.02
2022-12-20T15:31:30.724Z,14.90
2022-12-20T15:34:02.222Z,11.85
2022-12-20T15:36:29.926Z,10.68
2022-12-20T15:39:15.091Z,11.73
2022-12-20T15:41:46.221Z,20.80
2022-12-20T15:44:23.826Z,111.28
2022-12-20T15:46:51.544Z,37.72
2022-12-20T15:49:21.261Z,44.67
2022-12-20T15:51:49.596Z,76.15
2022-12-20T15:54:28.215Z,28.48
2022-12-20T15:57:00.143Z,16.77
2022-12-20T16:02:27.529Z,65.95
2022-12-20T16:04:55.317Z,28.55
2022-12-20T16:07:22.743Z,83.57
2022-12-20T16:09:49.750Z,22.30
2022-12-20T16:12:28.047Z,21.92
2022-12-20T16:14:55.124Z,19.75
2022-12-20T16:17:22.659Z,20.00
2022-12-20T16:19:50.594Z,19.17
2022-12-20T16:22:20.065Z,23.05
2022-12-20T16:24:47.101Z,20.73
2022-12-20T16:27:13.957Z,19.80
2022-12-20T16:29:41.547Z,20.30
2022-12-20T16:32:20.181Z,19.98
2022-12-20T16:34:49.188Z,23.25
2022-12-20T16:37:15.954Z,35.78
2022-12-20T16:39:42.931Z,36.75
2022-12-20T16:42:15.526Z,29.88
2022-12-20T16:44:44.919Z,24.65
2022-12-20T16:47:12.372Z,22.85
2022-12-20T16:49:39.146Z,24.45
2022-12-20T16:52:08.979Z,22.33
2022-12-20T16:54:36.435Z,21.13
2022-12-20T16:57:03.452Z,21.15
2022-12-20T16:59:30.153Z,20.45
2022-12-20T17:01:57.656Z,20.90
2022-12-20T17:04:26.166Z,21.85
2022-12-20T17:06:52.848Z,22.05
2022-12-20T17:12:13.372Z,21.42
2022-12-20T17:14:40.041Z,25.02
2022-12-20T17:17:07.854Z,28.27
2022-12-20T17:19:35.623Z,26.42
2022-12-20T17:24:46.883Z,27.35
2022-12-20T17:27:13.561Z,24.88
2022-12-20T17:29:40.257Z,19.90
2022-12-20T17:32:24.199Z,19.77
2022-12-20T17:34:51.246Z,14.13
2022-12-20T17:37:18.149Z,21.48
2022-12-20T17:39:44.971Z,19.17
2022-12-20T17:42:14.792Z,18.75
2022-12-20T17:44:42.178Z,18.13
2022-12-20T17:47:09.263Z,18.25
2022-12-20T17:49:35.952Z,20.60
2022-12-20T17:52:02.652Z,18.90
2022-12-20T17:54:36.597Z,16.83
2022-12-20T17:57:05.547Z,17.00
2022-12-20T17:59:32.387Z,17.75
2022-12-20T18:01:59.439Z,16.98
2022-12-20T18:04:26.702Z,18.73
2022-12-20T18:06:53.582Z,18.05
2022-12-20T18:09:21.660Z,17.00
2022-12-20T18:11:48.678Z,17.05
2022-12-20T18:14:16.368Z,16.77
2022-12-20T18:16:43.589Z,17.27
2022-12-20T18:19:18.361Z,16.30
2022-12-20T18:21:45.562Z,17.33
2022-12-20T18:24:14.206Z,15.90
2022-12-20T18:26:40.944Z,15.18
2022-12-20T18:29:07.744Z,14.65
2022-12-20T18:31:35.630Z,16.83
2022-12-20T18:34:03.433Z,15.57
2022-12-20T18:36:35.813Z,15.32
2022-12-20T18:39:05.388Z,16.60
2022-12-20T18:41:32.780Z,16.13
2022-12-20T18:44:01.825Z,16.35
2022-12-20T18:46:29.070Z,15.63
2022-12-20T18:48:58.911Z,15.02
2022-12-20T18:51:27.785Z,13.10
2022-12-20T18:53:56.267Z,14.60
2022-12-20T18:56:29.447Z,19.75
2022-12-20T18:58:56.953Z,17.90
2022-12-20T19:01:27.419Z,17.42
2022-12-20T19:03:55.132Z,13.43
2022-12-20T19:06:23.330Z,13.68
2022-12-20T19:08:50.454Z,14.48
2022-12-20T19:11:19.924Z,16.52
2022-12-20T19:13:47.047Z,20.65
2022-12-20T19:16:20.205Z,23.70
2022-12-20T19:18:47.807Z,23.38
2022-12-20T19:21:26.093Z,52.05
2022-12-20T19:23:55.827Z,32.67
2022-12-20T19:26:24.536Z,16.15
2022-12-20T19:28:51.434Z,25.67
2022-12-20T19:31:23.702Z,26.60
2022-12-20T19:33:56.241Z,27.17
2022-12-20T19:36:25.086Z,19.98
2022-12-20T19:38:55.739Z,19.50
2022-12-20T19:41:23.801Z,21.77
2022-12-20T19:43:51.652Z,27.17
2022-12-20T19:46:28.141Z,19.40
2022-12-20T19:48:56.616Z,18.00
2022-12-20T19:51:23.851Z,21.67
2022-12-20T19:53:53.304Z,23.83
2022-12-20T19:56:23.462Z,25.55
2022-12-20T19:58:50.233Z,23.27
2022-12-20T20:01:18.229Z,18.45
2022-12-20T20:03:45.408Z,20.95
2022-12-20T20:06:13.021Z,25.63
2022-12-20T20:08:40.747Z,17.17
2022-12-20T20:11:09.969Z,20.20
2022-12-20T20:13:37.721Z,17.85
2022-12-20T20:16:05.807Z,20.10
2022-12-20T20:18:37.825Z,20.20
2022-12-20T20:21:13.653Z,24.77
2022-12-20T20:23:40.506Z,21.65
2022-12-20T20:26:10.440Z,23.08
2022-12-20T20:28:43.888Z,30.00
2022-12-20T20:31:13.559Z,31.80
2022-12-20T20:33:40.485Z,29.90
2022-12-20T20:36:07.620Z,29.00
2022-12-20T20:38:35.075Z,30.25
2022-12-20T20:41:01.848Z,30.52
2022-12-20T20:43:29.735Z,28.88
2022-12-20T20:45:57.091Z,29.05
2022-12-20T20:48:23.944Z,28.10
2022-12-20T20:50:50.663Z,27.77
2022-12-20T20:53:17.322Z,26.55
2022-12-20T20:55:44.558Z,24.35
2022-12-20T20:58:11.253Z,24.00
2022-12-20T21:00:38.209Z,23.90
2022-12-20T21:03:05.490Z,22.90
2022-12-20T21:06:21.109Z,24.50
2022-12-20T21:08:21.799Z,25.63
2022-12-20T21:10:49.809Z,22.05
2022-12-20T21:13:17.166Z,24.33
2022-12-20T21:15:44.644Z,22.52
2022-12-20T21:18:12.188Z,22.75
2022-12-20T21:20:39.389Z,22.55
2022-12-20T21:23:06.993Z,23.55
2022-12-20T21:25:33.907Z,23.77
2022-12-20T21:28:00.669Z,21.00
2022-12-20T21:30:27.532Z,24.25
2022-12-20T21:32:54.236Z,22.55
2022-12-20T21:35:21.229Z,24.75
2022-12-20T21:37:47.957Z,24.77
2022-12-20T21:40:14.835Z,23.58
2022-12-20T21:42:41.510Z,20.77
2022-12-20T21:45:09.919Z,22.85
2022-12-20T21:47:36.643Z,19.70
2022-12-20T21:50:03.616Z,20.50
2022-12-20T21:52:30.440Z,20.67
2022-12-20T21:54:57.125Z,19.27
2022-12-20T21:57:23.769Z,28.02
2022-12-20T21:59:50.556Z,24.88
2022-12-20T22:02:17.528Z,20.00
2022-12-20T22:04:44.683Z,19.52
2022-12-20T22:07:11.311Z,17.52
2022-12-20T22:09:37.985Z,18.08
2022-12-20T22:12:04.885Z,16.23
2022-12-20T22:14:31.525Z,16.70
2022-12-20T22:16:58.225Z,17.33
2022-12-20T22:19:25.234Z,16.63
2022-12-20T22:21:57.697Z,16.00
2022-12-20T22:24:25.219Z,16.35
2022-12-20T22:26:51.898Z,17.02
2022-12-20T22:29:18.681Z,19.65
2022-12-20T22:31:45.816Z,18.35
2022-12-20T22:34:12.640Z,16.15
2022-12-20T22:36:39.342Z,15.48
2022-12-20T22:39:06.018Z,17.33
2022-12-20T22:41:35.072Z,19.30
2022-12-20T22:44:02.557Z,25.58
2022-12-20T22:46:29.863Z,30.80
2022-12-20T22:49:01.322Z,25.52
2022-12-20T22:51:31.780Z,21.95
2022-12-20T22:53:59.842Z,20.27
2022-12-20T22:56:27.276Z,19.10
2022-12-20T22:58:54.114Z,21.73
2022-12-20T23:01:21.290Z,18.55
2022-12-20T23:03:48.547Z,17.08
2022-12-20T23:06:17.844Z,17.90
2022-12-20T23:08:44.848Z,17.25
2022-12-20T23:11:42.534Z,16.50
2022-12-20T23:14:38.353Z,18.83
2022-12-20T23:17:07.127Z,16.48
2022-12-20T23:19:53.424Z,16.10
2022-12-20T23:22:40.740Z,17.45
2022-12-20T23:25:13.788Z,16.73
2022-12-20T23:27:42.547Z,15.73
2022-12-20T23:30:12.490Z,18.90
2022-12-20T23:32:39.197Z,17.42
2022-12-20T23:35:12.289Z,17.77
2022-12-20T23:37:40.123Z,19.48
2022-12-20T23:40:08.220Z,15.98
2022-12-20T23:42:34.907Z,15.23
2022-12-20T23:45:01.674Z,17.65
2022-12-20T23:47:28.346Z,14.68
2022-12-20T23:49:54.982Z,15.25
2022-12-20T23:52:21.632Z,14.38
2022-12-20T23:54:48.307Z,13.27
2022-12-20T23:57:15.003Z,15.07
2022-12-20T23:59:41.727Z,16.05
